Time;durP1;ratioP1;P1;durP2;ratioP2;P2;SDS_P1;SDS_P2;PMS_P1;PMS_P2;Temp;Humidity;BMP_temperature;BMP_pressure;BME280_temperature;BME280_humidity;BME280_pressure;Samples;Min_cycle;Max_cycle;Signal;HPM_P1;HPM_P2
2022/03/26 00:00:59;;;;;;;45.38;21.67;;;;;;;;;;4978886;28;93663;-94
2022/03/26 00:03:25;;;;;;;55.80;22.95;;;;;;;;;;4975687;28;97748;-95
2022/03/26 00:05:52;;;;;;;47.08;21.73;;;;;;;;;;4975736;28;95978;-94
2022/03/26 00:08:19;;;;;;;47.53;22.65;;;;;;;;;;4976948;28;93696;-94
2022/03/26 00:10:45;;;;;;;51.28;22.27;;;;;;;;;;4975740;28;95070;-94
2022/03/26 00:13:12;;;;;;;48.30;22.23;;;;;;;;;;4975573;28;97535;-94
2022/03/26 00:15:39;;;;;;;37.78;21.77;;;;;;;;;;4967404;28;94889;-95
2022/03/26 00:18:06;;;;;;;46.75;22.15;;;;;;;;;;4955542;28;99465;-95
2022/03/26 00:20:32;;;;;;;38.90;21.48;;;;;;;;;;4939313;28;94931;-95
2022/03/26 00:22:59;;;;;;;39.13;21.20;;;;;;;;;;4959053;28;93080;-96
2022/03/26 00:25:25;;;;;;;40.35;21.33;;;;;;;;;;4956028;28;94082;-94
2022/03/26 00:27:52;;;;;;;43.30;21.60;;;;;;;;;;4955452;28;94073;-95
2022/03/26 00:30:18;;;;;;;41.55;21.67;;;;;;;;;;4955592;28;96480;-95
2022/03/26 00:32:45;;;;;;;44.38;21.40;;;;;;;;;;4956414;28;96009;-95
2022/03/26 00:35:11;;;;;;;41.03;21.63;;;;;;;;;;4955752;28;94134;-94
2022/03/26 00:37:38;;;;;;;35.70;20.73;;;;;;;;;;4955526;28;96313;-95
2022/03/26 00:40:05;;;;;;;39.90;20.13;;;;;;;;;;4954861;28;98162;-94
2022/03/26 00:42:32;;;;;;;38.05;21.35;;;;;;;;;;4955350;28;93775;-94
2022/03/26 00:44:59;;;;;;;42.05;19.90;;;;;;;;;;4958669;28;94287;-96
2022/03/26 00:47:25;;;;;;;45.35;21.60;;;;;;;;;;4955680;28;93622;-95
2022/03/26 00:49:52;;;;;;;41.50;20.48;;;;;;;;;;4955712;28;96260;-94
2022/03/26 00:52:19;;;;;;;39.28;21.15;;;;;;;;;;4947719;28;95581;-95
2022/03/26 00:54:45;;;;;;;43.15;21.15;;;;;;;;;;4936250;28;92556;-94
2022/03/26 00:57:12;;;;;;;41.42;21.25;;;;;;;;;;4937290;28;97038;-94
2022/03/26 00:59:38;;;;;;;40.83;20.65;;;;;;;;;;4936913;28;96017;-94
2022/03/26 01:02:05;;;;;;;43.90;22.00;;;;;;;;;;4937268;28;92459;-95
2022/03/26 01:04:38;;;;;;;45.78;21.50;;;;;;;;;;4934137;28;96437;-94
2022/03/26 01:07:05;;;;;;;41.80;21.05;;;;;;;;;;4938066;28;97213;-95
2022/03/26 01:09:31;;;;;;;35.47;20.50;;;;;;;;;;4937189;28;92710;-95
2022/03/26 01:11:58;;;;;;;37.45;21.77;;;;;;;;;;4935482;28;97195;-95
2022/03/26 01:14:24;;;;;;;46.47;21.13;;;;;;;;;;4936197;28;92407;-95
2022/03/26 01:16:51;;;;;;;57.08;20.38;;;;;;;;;;4968206;28;95972;-95
2022/03/26 01:19:17;;;;;;;37.70;19.10;;;;;;;;;;4975157;28;95370;-94
2022/03/26 01:21:44;;;;;;;46.92;19.83;;;;;;;;;;4975444;28;91664;-94
2022/03/26 01:24:11;;;;;;;45.08;20.38;;;;;;;;;;4975067;28;94791;-95
2022/03/26 01:26:37;;;;;;;43.70;19.50;;;;;;;;;;4977561;28;94619;-94
2022/03/26 01:29:04;;;;;;;39.85;18.92;;;;;;;;;;4974186;28;96729;-94
2022/03/26 01:31:31;;;;;;;45.90;19.92;;;;;;;;;;4974439;28;94800;-95
2022/03/26 01:34:00;;;;;;;37.53;18.65;;;;;;;;;;4974715;28;92439;-94
2022/03/26 01:36:28;;;;;;;36.45;18.55;;;;;;;;;;4974462;28;96311;-94
2022/03/26 01:38:54;;;;;;;41.05;18.70;;;;;;;;;;4973961;28;97396;-96
2022/03/26 01:41:21;;;;;;;37.08;18.83;;;;;;;;;;4974534;28;93677;-93
2022/03/26 01:43:47;;;;;;;38.22;18.50;;;;;;;;;;4974190;28;92541;-94
2022/03/26 01:46:14;;;;;;;39.00;18.40;;;;;;;;;;4965209;28;93707;-94
2022/03/26 01:48:40;;;;;;;35.45;17.50;;;;;;;;;;4957793;28;92335;-95
2022/03/26 01:51:16;;;;;;;33.13;18.10;;;;;;;;;;4954606;28;97751;-94
2022/03/26 01:53:47;;;;;;;40.00;16.67;;;;;;;;;;4953077;28;94840;-95
2022/03/26 01:56:14;;;;;;;37.03;18.45;;;;;;;;;;4954519;28;99207;-95
2022/03/26 01:58:41;;;;;;;32.65;17.63;;;;;;;;;;4953966;28;96351;-94
2022/03/26 02:01:07;;;;;;;38.53;19.02;;;;;;;;;;4954547;28;94302;-95
2022/03/26 02:03:34;;;;;;;30.88;16.63;;;;;;;;;;4954995;28;96158;-94
2022/03/26 02:06:01;;;;;;;39.38;19.17;;;;;;;;;;4954400;28;97287;-95
2022/03/26 02:08:28;;;;;;;43.95;18.38;;;;;;;;;;4953836;28;92418;-95
2022/03/26 02:10:54;;;;;;;38.13;17.95;;;;;;;;;;4957917;28;95856;-96
2022/03/26 02:13:21;;;;;;;34.40;16.73;;;;;;;;;;4954306;28;93842;-95
2022/03/26 02:15:48;;;;;;;37.75;18.92;;;;;;;;;;4954017;28;93294;-94
2022/03/26 02:18:14;;;;;;;39.38;18.30;;;;;;;;;;4955677;28;99146;-95
2022/03/26 02:20:41;;;;;;;35.88;17.20;;;;;;;;;;4957963;28;93249;-94
2022/03/26 02:23:07;;;;;;;38.22;17.95;;;;;;;;;;4958035;28;96186;-94
2022/03/26 02:25:34;;;;;;;42.53;18.80;;;;;;;;;;4957712;28;97656;-95
2022/03/26 02:28:00;;;;;;;45.05;18.38;;;;;;;;;;4957828;28;93839;-94
2022/03/26 02:30:27;;;;;;;38.40;18.10;;;;;;;;;;4957615;28;95963;-95
2022/03/26 02:32:54;;;;;;;32.67;17.67;;;;;;;;;;4960414;28;95753;-95
2022/03/26 02:35:20;;;;;;;34.05;16.92;;;;;;;;;;4957748;28;96994;-95
2022/03/26 02:37:47;;;;;;;28.65;17.40;;;;;;;;;;4957214;28;97541;-94
2022/03/26 02:40:13;;;;;;;32.22;17.88;;;;;;;;;;4957270;28;92476;-93
2022/03/26 02:42:40;;;;;;;38.30;17.58;;;;;;;;;;4956281;28;96942;-95
2022/03/26 02:45:07;;;;;;;43.92;17.90;;;;;;;;;;4958646;28;97247;-95
2022/03/26 02:47:34;;;;;;;32.72;17.15;;;;;;;;;;4957624;28;94039;-95
2022/03/26 02:50:00;;;;;;;37.67;17.02;;;;;;;;;;4957372;28;96773;-95
2022/03/26 02:52:26;;;;;;;44.10;18.38;;;;;;;;;;4957790;28;95263;-94
2022/03/26 02:54:53;;;;;;;43.15;17.55;;;;;;;;;;4960136;28;93567;-94
2022/03/26 02:57:20;;;;;;;45.53;18.38;;;;;;;;;;4957151;28;96128;-95
2022/03/26 02:59:46;;;;;;;39.58;18.63;;;;;;;;;;4941547;28;93879;-95
2022/03/26 03:02:13;;;;;;;34.58;17.52;;;;;;;;;;4958531;28;94927;-95
2022/03/26 03:04:40;;;;;;;46.47;18.50;;;;;;;;;;4957282;28;96144;-95
2022/03/26 03:07:06;;;;;;;41.03;18.35;;;;;;;;;;4955262;28;94864;-94
2022/03/26 03:09:33;;;;;;;30.95;16.65;;;;;;;;;;4956752;28;98704;-95
2022/03/26 03:11:59;;;;;;;41.85;18.42;;;;;;;;;;4957299;28;97364;-95
2022/03/26 03:14:25;;;;;;;36.97;17.75;;;;;;;;;;4957047;28;92528;-94
2022/03/26 03:16:52;;;;;;;37.65;19.05;;;;;;;;;;4943338;28;96813;-95
2022/03/26 03:19:19;;;;;;;34.95;17.95;;;;;;;;;;4957254;28;94310;-94
2022/03/26 03:21:45;;;;;;;41.15;18.42;;;;;;;;;;4957318;28;95358;-94
2022/03/26 03:24:11;;;;;;;33.92;17.52;;;;;;;;;;4957519;28;93922;-95
2022/03/26 03:26:38;;;;;;;44.17;18.13;;;;;;;;;;4957101;28;92765;-95
2022/03/26 03:29:04;;;;;;;37.47;17.55;;;;;;;;;;4956508;28;93764;-94
2022/03/26 03:31:32;;;;;;;41.08;17.65;;;;;;;;;;4939369;28;98354;-94
2022/03/26 03:33:59;;;;;;;33.60;17.27;;;;;;;;;;4957075;28;93998;-94
2022/03/26 03:36:25;;;;;;;30.20;17.13;;;;;;;;;;4961193;28;94388;-94
2022/03/26 03:38:52;;;;;;;31.55;16.45;;;;;;;;;;4956526;28;93111;-93
2022/03/26 03:41:18;;;;;;;34.30;16.88;;;;;;;;;;4957237;28;96574;-95
2022/03/26 03:43:45;;;;;;;31.73;16.75;;;;;;;;;;4957985;28;93131;-95
2022/03/26 03:46:11;;;;;;;30.30;16.55;;;;;;;;;;4956582;28;92742;-94
2022/03/26 03:48:38;;;;;;;39.10;18.25;;;;;;;;;;4956983;28;94620;-93
2022/03/26 03:51:05;;;;;;;36.58;17.42;;;;;;;;;;4956653;28;97123;-93
2022/03/26 03:53:31;;;;;;;36.45;18.10;;;;;;;;;;4957838;28;93314;-94
2022/03/26 03:55:58;;;;;;;34.95;18.58;;;;;;;;;;4955645;28;94737;-95
2022/03/26 03:58:24;;;;;;;36.40;19.10;;;;;;;;;;4959354;28;96376;-94
2022/03/26 04:00:54;;;;;;;35.22;18.60;;;;;;;;;;4956673;28;93539;-96
2022/03/26 04:03:20;;;;;;;41.25;18.98;;;;;;;;;;4956199;28;97040;-96
2022/03/26 04:05:47;;;;;;;35.58;18.38;;;;;;;;;;4956614;28;93031;-94
2022/03/26 04:08:14;;;;;;;42.25;19.42;;;;;;;;;;4956236;28;95252;-94
2022/03/26 04:10:41;;;;;;;42.85;18.98;;;;;;;;;;4956768;28;96090;-93
2022/03/26 04:13:08;;;;;;;41.20;20.08;;;;;;;;;;4956893;28;93778;-93
2022/03/26 04:15:34;;;;;;;39.72;18.95;;;;;;;;;;4956212;28;95573;-94
2022/03/26 04:18:01;;;;;;;44.15;21.35;;;;;;;;;;4956132;28;97015;-94
2022/03/26 04:20:27;;;;;;;44.45;21.83;;;;;;;;;;4957729;28;94854;-94
2022/03/26 04:22:53;;;;;;;43.83;21.13;;;;;;;;;;4957180;28;95629;-94
2022/03/26 04:25:20;;;;;;;45.40;20.17;;;;;;;;;;4957501;28;92316;-95
2022/03/26 04:27:47;;;;;;;46.13;21.35;;;;;;;;;;4958259;28;95709;-94
2022/03/26 04:30:14;;;;;;;46.63;22.20;;;;;;;;;;4957096;28;97566;-94
2022/03/26 04:32:40;;;;;;;41.45;20.05;;;;;;;;;;4956802;28;94677;-94
2022/03/26 04:35:07;;;;;;;56.20;22.30;;;;;;;;;;4956686;28;97064;-94
2022/03/26 04:37:36;;;;;;;55.50;21.65;;;;;;;;;;4956859;28;96537;-93
2022/03/26 04:40:04;;;;;;;46.30;21.27;;;;;;;;;;4955569;28;92424;-94
2022/03/26 04:42:30;;;;;;;42.05;22.35;;;;;;;;;;4959464;28;97316;-94
2022/03/26 04:44:57;;;;;;;44.25;22.15;;;;;;;;;;4954121;28;94809;-94
2022/03/26 04:47:23;;;;;;;46.58;21.70;;;;;;;;;;4956915;28;97672;-94
2022/03/26 04:49:50;;;;;;;47.25;22.63;;;;;;;;;;4955487;28;96179;-94
2022/03/26 04:52:16;;;;;;;49.22;21.90;;;;;;;;;;4955476;28;93177;-94
2022/03/26 04:54:43;;;;;;;42.00;21.80;;;;;;;;;;4955258;28;95998;-95
2022/03/26 04:57:10;;;;;;;48.33;21.30;;;;;;;;;;4955465;28;97056;-92
2022/03/26 04:59:36;;;;;;;57.45;23.10;;;;;;;;;;4955104;28;92538;-93
2022/03/26 05:02:03;;;;;;;46.75;23.13;;;;;;;;;;4955859;28;96053;-94
2022/03/26 05:04:30;;;;;;;50.70;23.23;;;;;;;;;;4958149;28;93312;-94
2022/03/26 05:06:57;;;;;;;51.50;23.90;;;;;;;;;;4956197;28;95764;-94
2022/03/26 05:09:23;;;;;;;62.17;24.73;;;;;;;;;;4953714;28;96679;-94
2022/03/26 05:11:50;;;;;;;51.70;23.92;;;;;;;;;;4955258;28;93814;-94
2022/03/26 05:14:17;;;;;;;49.65;22.65;;;;;;;;;;4954653;28;95015;-94
2022/03/26 05:16:44;;;;;;;52.63;23.73;;;;;;;;;;4955311;28;97495;-96
2022/03/26 05:19:10;;;;;;;53.22;22.75;;;;;;;;;;4954753;28;92761;-95
2022/03/26 05:21:37;;;;;;;56.92;24.30;;;;;;;;;;4956091;28;96010;-94
2022/03/26 05:24:04;;;;;;;55.35;25.27;;;;;;;;;;4938795;28;97715;-94
2022/03/26 05:26:31;;;;;;;55.88;25.77;;;;;;;;;;4958267;28;91653;-94
2022/03/26 05:29:00;;;;;;;57.05;25.52;;;;;;;;;;4954869;28;96617;-95
2022/03/26 05:31:28;;;;;;;58.25;24.35;;;;;;;;;;4951781;28;92439;-94
2022/03/26 05:33:55;;;;;;;51.28;24.27;;;;;;;;;;4933836;28;97290;-95
2022/03/26 05:36:22;;;;;;;49.45;24.77;;;;;;;;;;4935148;28;96102;-95
2022/03/26 05:38:48;;;;;;;56.03;24.95;;;;;;;;;;4935218;28;92669;-95
2022/03/26 05:41:15;;;;;;;51.22;23.35;;;;;;;;;;4935315;28;95680;-94
2022/03/26 05:43:41;;;;;;;50.83;23.77;;;;;;;;;;4935499;28;95837;-96
2022/03/26 05:46:08;;;;;;;52.13;24.85;;;;;;;;;;4938395;28;93258;-94
2022/03/26 05:48:35;;;;;;;57.55;25.13;;;;;;;;;;4935315;28;95867;-94
2022/03/26 05:51:01;;;;;;;51.47;24.35;;;;;;;;;;4937029;28;91659;-94
2022/03/26 05:53:27;;;;;;;51.70;25.15;;;;;;;;;;4938994;28;96236;-94
2022/03/26 05:55:54;;;;;;;53.17;25.13;;;;;;;;;;4939828;28;97632;-96
2022/03/26 05:58:21;;;;;;;53.88;25.30;;;;;;;;;;4937285;28;95208;-95
2022/03/26 06:00:49;;;;;;;54.67;25.05;;;;;;;;;;4938393;28;99534;-95
2022/03/26 06:03:19;;;;;;;53.47;25.05;;;;;;;;;;4938904;28;96086;-95
2022/03/26 06:05:46;;;;;;;47.60;25.92;;;;;;;;;;4938391;28;93073;-95
2022/03/26 06:08:13;;;;;;;53.13;25.55;;;;;;;;;;4941297;28;97340;-95
2022/03/26 06:10:39;;;;;;;58.35;25.15;;;;;;;;;;4938628;28;92433;-94
2022/03/26 06:13:06;;;;;;;58.03;25.83;;;;;;;;;;4938560;28;94274;-94
2022/03/26 06:15:34;;;;;;;52.97;24.35;;;;;;;;;;4942993;28;95593;-94
2022/03/26 06:18:11;;;;;;;52.47;24.67;;;;;;;;;;4958032;28;94371;-94
2022/03/26 06:20:37;;;;;;;42.85;23.58;;;;;;;;;;4958081;28;95917;-96
2022/03/26 06:23:04;;;;;;;61.45;24.40;;;;;;;;;;4956426;28;97873;-94
2022/03/26 06:25:31;;;;;;;55.90;24.15;;;;;;;;;;4941867;28;93185;-93
2022/03/26 06:27:58;;;;;;;52.75;24.45;;;;;;;;;;4957826;28;96735;-93
2022/03/26 06:30:24;;;;;;;53.50;23.38;;;;;;;;;;4960651;28;96943;-92
2022/03/26 06:32:52;;;;;;;51.67;24.20;;;;;;;;;;4957944;28;96357;-93
2022/03/26 06:35:19;;;;;;;60.55;25.73;;;;;;;;;;4957902;28;96524;-94
2022/03/26 06:37:45;;;;;;;54.13;27.08;;;;;;;;;;4959028;28;92366;-93
2022/03/26 06:40:12;;;;;;;54.28;29.55;;;;;;;;;;4957884;28;93212;-93
2022/03/26 06:42:38;;;;;;;61.92;30.27;;;;;;;;;;4956982;28;97526;-93
2022/03/26 06:45:08;;;;;;;63.05;31.77;;;;;;;;;;4974269;28;93842;-93
2022/03/26 06:47:35;;;;;;;70.57;32.07;;;;;;;;;;4956887;28;97396;-93
2022/03/26 06:50:01;;;;;;;70.03;30.73;;;;;;;;;;4957956;28;96865;-93
2022/03/26 06:52:28;;;;;;;66.78;30.50;;;;;;;;;;4960902;28;93031;-93
2022/03/26 06:54:55;;;;;;;64.57;30.48;;;;;;;;;;4958110;28;96289;-94
2022/03/26 06:57:21;;;;;;;60.67;26.63;;;;;;;;;;4958594;28;92429;-93
2022/03/26 06:59:48;;;;;;;51.33;26.15;;;;;;;;;;4958672;28;96559;-94
2022/03/26 07:02:15;;;;;;;57.35;25.90;;;;;;;;;;4957487;28;96468;-93
2022/03/26 07:04:41;;;;;;;50.22;24.95;;;;;;;;;;4958523;28;92858;-94
2022/03/26 07:07:08;;;;;;;51.60;25.75;;;;;;;;;;4957614;28;95829;-94
2022/03/26 07:09:34;;;;;;;61.55;27.73;;;;;;;;;;4957790;28;97648;-93
2022/03/26 07:12:01;;;;;;;52.95;26.02;;;;;;;;;;4957274;28;94764;-93
2022/03/26 07:14:29;;;;;;;58.15;25.88;;;;;;;;;;4960784;28;92227;-93
2022/03/26 07:16:56;;;;;;;50.78;25.40;;;;;;;;;;4957212;28;93863;-95
2022/03/26 07:19:22;;;;;;;56.40;26.85;;;;;;;;;;4957697;28;97175;-94
2022/03/26 07:21:49;;;;;;;58.42;27.23;;;;;;;;;;4957672;28;96816;-93
2022/03/26 07:24:16;;;;;;;69.45;28.83;;;;;;;;;;4957396;28;94034;-93
2022/03/26 07:26:42;;;;;;;64.70;31.35;;;;;;;;;;4957760;28;97056;-95
2022/03/26 07:29:09;;;;;;;69.88;32.58;;;;;;;;;;4959050;28;95950;-93
2022/03/26 07:31:35;;;;;;;73.80;34.15;;;;;;;;;;4957565;28;93855;-93
2022/03/26 07:34:02;;;;;;;66.22;32.53;;;;;;;;;;4960781;28;97358;-94
2022/03/26 07:36:29;;;;;;;64.63;32.33;;;;;;;;;;4955948;28;94799;-94
2022/03/26 07:38:55;;;;;;;67.25;33.67;;;;;;;;;;4957596;28;98366;-94
2022/03/26 07:41:22;;;;;;;67.88;35.00;;;;;;;;;;4957175;28;95992;-94
2022/03/26 07:43:49;;;;;;;71.10;35.05;;;;;;;;;;4959262;28;92423;-93
2022/03/26 07:46:18;;;;;;;65.22;33.60;;;;;;;;;;4957925;28;96274;-94
2022/03/26 07:48:45;;;;;;;68.47;33.50;;;;;;;;;;4957390;28;97238;-94
2022/03/26 07:51:12;;;;;;;66.30;34.60;;;;;;;;;;4957634;28;93763;-94
2022/03/26 07:53:38;;;;;;;65.55;32.70;;;;;;;;;;4959030;28;93558;-94
2022/03/26 07:56:08;;;;;;;68.00;33.40;;;;;;;;;;4960424;28;96846;-95
2022/03/26 07:58:35;;;;;;;71.75;34.22;;;;;;;;;;4958122;28;97326;-94
2022/03/26 08:01:01;;;;;;;70.07;34.50;;;;;;;;;;4955749;28;100055;-94
2022/03/26 08:03:28;;;;;;;70.05;32.88;;;;;;;;;;4957728;28;94039;-94
2022/03/26 08:05:56;;;;;;;66.13;34.17;;;;;;;;;;4957671;28;96717;-93
2022/03/26 08:08:23;;;;;;;71.78;33.78;;;;;;;;;;4957846;28;95246;-93
2022/03/26 08:10:50;;;;;;;73.80;35.45;;;;;;;;;;4960381;28;93941;-94
2022/03/26 08:13:17;;;;;;;74.93;36.58;;;;;;;;;;4958139;28;96919;-94
2022/03/26 08:15:49;;;;;;;77.47;37.22;;;;;;;;;;4956285;28;97314;-94
2022/03/26 08:18:16;;;;;;;68.88;36.30;;;;;;;;;;4961294;28;93557;-96
2022/03/26 08:20:44;;;;;;;68.88;36.70;;;;;;;;;;4956809;28;95917;-95
2022/03/26 08:23:11;;;;;;;70.53;35.47;;;;;;;;;;4957281;28;92653;-94
2022/03/26 08:28:23;;;;;;;75.00;35.17;;;;;;;;;;4958069;28;96477;-95
2022/03/26 08:30:49;;;;;;;71.13;35.92;;;;;;;;;;4957110;28;92390;-95
2022/03/26 08:33:17;;;;;;;79.57;35.88;;;;;;;;;;4957979;28;96837;-94
2022/03/26 08:35:43;;;;;;;70.22;33.88;;;;;;;;;;4956570;28;96944;-95
2022/03/26 08:38:10;;;;;;;69.63;34.75;;;;;;;;;;4957705;28;92806;-94
2022/03/26 08:40:37;;;;;;;78.85;35.15;;;;;;;;;;4960558;28;96768;-95
2022/03/26 08:43:06;;;;;;;71.57;34.53;;;;;;;;;;4956680;28;92784;-93
2022/03/26 08:45:32;;;;;;;72.15;34.35;;;;;;;;;;4956521;28;95963;-93
2022/03/26 08:47:59;;;;;;;78.35;35.53;;;;;;;;;;4956425;28;96305;-93
2022/03/26 08:50:26;;;;;;;73.57;33.17;;;;;;;;;;4954649;28;94812;-94
2022/03/26 08:52:54;;;;;;;63.65;31.10;;;;;;;;;;4956382;28;99668;-94
2022/03/26 08:55:23;;;;;;;54.95;27.40;;;;;;;;;;4955844;28;97060;-93
2022/03/26 08:57:50;;;;;;;46.25;23.40;;;;;;;;;;4955964;28;93902;-94
2022/03/26 09:00:17;;;;;;;47.60;22.67;;;;;;;;;;4972645;28;94525;-93
2022/03/26 09:02:47;;;;;;;44.40;21.35;;;;;;;;;;4960316;28;95579;-94
2022/03/26 09:05:14;;;;;;;49.92;21.90;;;;;;;;;;4972707;28;96566;-95
2022/03/26 09:07:41;;;;;;;56.95;24.10;;;;;;;;;;4972819;28;96254;-94
2022/03/26 09:10:08;;;;;;;50.47;24.90;;;;;;;;;;4975137;28;92945;-93
2022/03/26 09:12:34;;;;;;;46.90;24.33;;;;;;;;;;4973137;28;94991;-93
2022/03/26 09:15:01;;;;;;;48.97;25.00;;;;;;;;;;4955226;28;98238;-94
2022/03/26 09:17:27;;;;;;;45.53;26.30;;;;;;;;;;4971193;28;93771;-96
2022/03/26 09:19:54;;;;;;;48.83;27.48;;;;;;;;;;4971864;28;95038;-96
2022/03/26 09:22:23;;;;;;;52.08;28.92;;;;;;;;;;4958411;28;96482;-96
2022/03/26 09:24:51;;;;;;;52.88;28.52;;;;;;;;;;4959488;28;92477;-94
2022/03/26 09:27:17;;;;;;;47.90;28.50;;;;;;;;;;4970290;28;96680;-94
2022/03/26 09:29:45;;;;;;;50.45;27.48;;;;;;;;;;4971656;28;92488;-96
2022/03/26 09:32:12;;;;;;;52.28;29.90;;;;;;;;;;4972030;28;94707;-96
2022/03/26 09:34:43;;;;;;;49.35;28.65;;;;;;;;;;4956244;28;96267;-95
2022/03/26 09:37:10;;;;;;;41.77;27.30;;;;;;;;;;4955249;28;93896;-96
2022/03/26 09:39:37;;;;;;;48.00;30.05;;;;;;;;;;4955426;28;97386;-96
2022/03/26 09:42:04;;;;;;;39.22;27.98;;;;;;;;;;4971819;28;98022;-95
2022/03/26 09:44:34;;;;;;;48.47;30.40;;;;;;;;;;4974033;28;94389;-96
2022/03/26 09:47:01;;;;;;;53.40;30.15;;;;;;;;;;4955623;28;95347;-95
2022/03/26 09:49:31;;;;;;;54.42;34.30;;;;;;;;;;4955123;28;95125;-94
2022/03/26 09:51:59;;;;;;;48.58;31.27;;;;;;;;;;4953593;28;96830;-93
2022/03/26 09:54:26;;;;;;;46.55;31.42;;;;;;;;;;4969666;28;98821;-94
2022/03/26 09:56:52;;;;;;;46.33;29.70;;;;;;;;;;4955017;28;94972;-95
2022/03/26 09:59:22;;;;;;;37.65;24.35;;;;;;;;;;4969855;28;97762;-93
2022/03/26 10:01:49;;;;;;;31.85;23.85;;;;;;;;;;4970515;28;94610;-94
2022/03/26 10:04:17;;;;;;;38.83;24.52;;;;;;;;;;4967812;28;96752;-93
2022/03/26 10:06:48;;;;;;;39.75;26.15;;;;;;;;;;4971252;28;101644;-93
2022/03/26 10:09:24;;;;;;;42.33;25.10;;;;;;;;;;4936633;28;94429;-94
2022/03/26 10:11:57;;;;;;;29.60;20.70;;;;;;;;;;4969353;28;99253;-94
2022/03/26 10:14:24;;;;;;;32.75;23.92;;;;;;;;;;4954434;28;97821;-94
2022/03/26 10:16:51;;;;;;;35.35;24.92;;;;;;;;;;4952480;28;95797;-95
2022/03/26 10:19:21;;;;;;;37.92;24.33;;;;;;;;;;4953514;28;97804;-94
2022/03/26 10:21:49;;;;;;;37.95;24.42;;;;;;;;;;4969585;28;99130;-94
2022/03/26 10:24:15;;;;;;;34.38;22.15;;;;;;;;;;4969705;28;95817;-94
2022/03/26 10:26:42;;;;;;;42.08;25.08;;;;;;;;;;4968645;28;99715;-94
2022/03/26 10:29:09;;;;;;;42.28;26.25;;;;;;;;;;4970227;28;101427;-94
2022/03/26 10:34:21;;;;;;;46.05;25.10;;;;;;;;;;4953208;28;99612;-94
2022/03/26 10:36:54;;;;;;;34.53;23.63;;;;;;;;;;4968205;28;94919;-94
2022/03/26 10:39:27;;;;;;;38.55;24.75;;;;;;;;;;4971373;28;98598;-95
2022/03/26 10:41:54;;;;;;;35.60;24.63;;;;;;;;;;4971702;28;98966;-95
2022/03/26 10:44:25;;;;;;;47.75;23.95;;;;;;;;;;4971256;28;95470;-94
2022/03/26 10:46:56;;;;;;;33.47;23.60;;;;;;;;;;4956663;28;99513;-95
2022/03/26 10:49:34;;;;;;;47.28;24.27;;;;;;;;;;4956035;28;98745;-93
2022/03/26 10:52:04;;;;;;;39.42;24.25;;;;;;;;;;4974500;28;96435;-94
2022/03/26 10:54:32;;;;;;;34.58;21.73;;;;;;;;;;4969678;28;99247;-94
2022/03/26 10:56:59;;;;;;;43.95;21.77;;;;;;;;;;4971376;28;94748;-94
2022/03/26 10:59:26;;;;;;;35.03;22.45;;;;;;;;;;4970946;28;96375;-94
2022/03/26 11:01:57;;;;;;;35.63;21.15;;;;;;;;;;4971064;28;99389;-95
2022/03/26 11:04:25;;;;;;;36.50;21.60;;;;;;;;;;4970998;28;95376;-95
2022/03/26 11:06:52;;;;;;;35.13;20.97;;;;;;;;;;4955882;28;99329;-95
2022/03/26 11:09:19;;;;;;;39.10;21.73;;;;;;;;;;4955848;28;98886;-96
2022/03/26 11:11:48;;;;;;;37.85;22.75;;;;;;;;;;4955303;28;96926;-94
2022/03/26 11:14:15;;;;;;;;;;;;;;;;;;4975013;28;98489;-95
2022/03/26 11:16:54;;;;;;;32.78;16.83;;;;;;;;;;4955693;28;121623;-95
2022/03/26 11:19:28;;;;;;;26.73;15.85;;;;;;;;;;4968883;28;98679;-95
2022/03/26 11:22:04;;;;;;;33.60;18.33;;;;;;;;;;4954703;28;99282;-95
2022/03/26 11:24:42;;;;;;;42.38;17.83;;;;;;;;;;4970958;28;94731;-94
2022/03/26 11:27:15;;;;;;;21.20;12.02;;;;;;;;;;4970794;28;99311;-94
2022/03/26 11:29:43;;;;;;;23.25;11.98;;;;;;;;;;4970554;28;99723;-93
2022/03/26 11:32:32;;;;;;;26.35;10.30;;;;;;;;;;4955747;28;94759;-94
2022/03/26 11:35:03;;;;;;;27.42;10.38;;;;;;;;;;4955653;28;99177;-94
2022/03/26 11:37:30;;;;;;;24.13;11.63;;;;;;;;;;4959537;28;98098;-95
2022/03/26 11:39:56;;;;;;;21.75;12.52;;;;;;;;;;4954544;28;97368;-95
2022/03/26 11:42:24;;;;;;;18.42;10.68;;;;;;;;;;4970609;28;99558;-94
2022/03/26 11:50:41;;;;;;;24.58;11.32;;;;;;;;;;4954744;28;99266;-94
2022/03/26 11:53:08;;;;;;;30.00;16.98;;;;;;;;;;4955321;28;94689;-94
2022/03/26 11:55:48;;;;;;;23.83;14.43;;;;;;;;;;4970928;28;99783;-94
2022/03/26 11:58:24;;;;;;;26.67;15.85;;;;;;;;;;4958233;28;99964;-94
2022/03/26 12:00:54;;;;;;;24.17;16.98;;;;;;;;;;4970619;28;99148;-93
2022/03/26 12:03:25;;;;;;;30.23;17.23;;;;;;;;;;4971042;28;98822;-95
2022/03/26 12:08:53;;;;;;;31.83;16.35;;;;;;;;;;4955670;28;99297;-94
2022/03/26 12:11:20;;;;;;;30.90;17.67;;;;;;;;;;4968984;28;100759;-96
2022/03/26 12:14:05;;;;;;;28.92;15.48;;;;;;;;;;4954191;28;94607;-95
2022/03/26 12:16:50;;;;;;;25.88;15.73;;;;;;;;;;4955035;28;99365;-95
2022/03/26 12:19:37;;;;;;;28.80;16.20;;;;;;;;;;4970165;28;99097;-94
2022/03/26 12:22:23;;;;;;;30.83;15.50;;;;;;;;;;4958408;28;94821;-94
2022/03/26 12:24:50;;;;;;;27.65;15.30;;;;;;;;;;4955441;28;97899;-95
2022/03/26 12:27:17;;;;;;;34.17;17.70;;;;;;;;;;4970589;28;96031;-95
2022/03/26 12:29:44;;;;;;;31.20;16.98;;;;;;;;;;4970841;28;99995;-94
2022/03/26 12:32:10;;;;;;;34.90;16.27;;;;;;;;;;4970263;28;98802;-94
2022/03/26 12:34:58;;;;;;;36.38;16.52;;;;;;;;;;4970523;28;94384;-95
2022/03/26 12:37:25;;;;;;;25.30;13.95;;;;;;;;;;4969031;28;98152;-93
2022/03/26 12:39:52;;;;;;;22.85;13.13;;;;;;;;;;4955402;28;98839;-95
2022/03/26 12:42:19;;;;;;;22.52;11.95;;;;;;;;;;4954371;28;94220;-95
2022/03/26 12:44:46;;;;;;;27.90;11.15;;;;;;;;;;4974155;28;99464;-95
2022/03/26 12:47:20;;;;;;;22.65;11.10;;;;;;;;;;4955688;28;93951;-96
2022/03/26 12:49:51;;;;;;;16.88;10.00;;;;;;;;;;4971331;28;98427;-93
2022/03/26 12:52:18;;;;;;;24.70;11.73;;;;;;;;;;4971545;28;96598;-95
2022/03/26 12:54:51;;;;;;;21.02;10.20;;;;;;;;;;4957244;28;93177;-95
2022/03/26 12:57:19;;;;;;;27.13;10.02;;;;;;;;;;4956929;28;95848;-95
2022/03/26 12:59:56;;;;;;;17.05;9.70;;;;;;;;;;4972012;28;97016;-95
2022/03/26 13:02:28;;;;;;;17.98;9.00;;;;;;;;;;4954578;28;94957;-94
2022/03/26 13:04:55;;;;;;;22.75;8.68;;;;;;;;;;4956835;28;99938;-94
2022/03/26 13:07:22;;;;;;;20.20;9.88;;;;;;;;;;4960623;28;93449;-94
2022/03/26 13:09:55;;;;;;;29.25;13.35;;;;;;;;;;4956837;28;96540;-93
2022/03/26 13:12:25;;;;;;;24.10;12.05;;;;;;;;;;4972505;28;97028;-93
2022/03/26 13:14:52;;;;;;;37.72;11.20;;;;;;;;;;4957327;28;93694;-94
2022/03/26 13:17:20;;;;;;;25.83;10.30;;;;;;;;;;4972061;28;95417;-93
2022/03/26 13:19:47;;;;;;;18.73;9.90;;;;;;;;;;4958119;28;96262;-94
2022/03/26 13:22:17;;;;;;;22.42;10.43;;;;;;;;;;4956618;28;92446;-94
2022/03/26 13:24:50;;;;;;;25.23;10.20;;;;;;;;;;4973318;28;96517;-93
2022/03/26 13:27:18;;;;;;;14.10;8.32;;;;;;;;;;4971103;28;98009;-94
2022/03/26 13:29:45;;;;;;;16.45;9.00;;;;;;;;;;4959691;28;93181;-93
2022/03/26 13:32:11;;;;;;;21.30;10.40;;;;;;;;;;4956017;28;97223;-93
2022/03/26 13:34:39;;;;;;;19.92;9.88;;;;;;;;;;4972346;28;92415;-93
2022/03/26 13:37:06;;;;;;;25.17;11.32;;;;;;;;;;4956176;28;96737;-92
2022/03/26 13:39:32;;;;;;;21.10;10.68;;;;;;;;;;4971969;28;95636;-93
2022/03/26 13:42:09;;;;;;;23.77;10.98;;;;;;;;;;4971850;28;93661;-94
2022/03/26 13:44:36;;;;;;;28.30;11.48;;;;;;;;;;4972400;28;96932;-93
2022/03/26 13:47:04;;;;;;;23.17;10.68;;;;;;;;;;4971358;28;97343;-94
2022/03/26 13:49:31;;;;;;;13.15;9.13;;;;;;;;;;4971890;28;94145;-94
2022/03/26 13:51:59;;;;;;;17.30;9.25;;;;;;;;;;4957636;28;96592;-94
2022/03/26 13:54:33;;;;;;;16.88;8.75;;;;;;;;;;4955995;28;92516;-92
2022/03/26 13:57:00;;;;;;;25.15;10.57;;;;;;;;;;4956216;28;96944;-93
2022/03/26 13:59:27;;;;;;;17.90;9.35;;;;;;;;;;4956366;28;97200;-93
2022/03/26 14:01:56;;;;;;;22.65;11.18;;;;;;;;;;4956144;28;93349;-94
2022/03/26 14:04:25;;;;;;;23.40;10.95;;;;;;;;;;4971774;28;96567;-94
2022/03/26 14:06:54;;;;;;;22.88;11.40;;;;;;;;;;4971315;28;96308;-93
2022/03/26 14:09:21;;;;;;;27.15;9.80;;;;;;;;;;4972468;28;92183;-94
2022/03/26 14:11:48;;;;;;;23.58;10.02;;;;;;;;;;4958847;28;93512;-93
2022/03/26 14:14:15;;;;;;;23.73;10.25;;;;;;;;;;4974907;28;92422;-93
2022/03/26 14:16:41;;;;;;;19.48;11.00;;;;;;;;;;4973247;28;96687;-93
2022/03/26 14:19:08;;;;;;;28.90;12.57;;;;;;;;;;4974689;28;95493;-94
2022/03/26 14:21:35;;;;;;;26.58;11.40;;;;;;;;;;4959570;28;92284;-93
2022/03/26 14:24:03;;;;;;;23.58;11.02;;;;;;;;;;4974974;28;97441;-94
2022/03/26 14:26:30;;;;;;;41.28;14.65;;;;;;;;;;4974990;28;97287;-93
2022/03/26 14:28:56;;;;;;;34.50;14.10;;;;;;;;;;4975517;28;93047;-93
2022/03/26 14:31:23;;;;;;;32.10;14.60;;;;;;;;;;4959568;28;96880;-94
2022/03/26 14:33:50;;;;;;;48.55;16.25;;;;;;;;;;4978188;28;96488;-94
2022/03/26 14:36:16;;;;;;;59.45;19.08;;;;;;;;;;4974788;28;96717;-92